createdAt,value
2023-04-20T00:00:15.975Z,37.30
2023-04-20T00:03:23.159Z,33.90
2023-04-20T00:06:18.032Z,36.80
2023-04-20T00:09:13.528Z,36.70
2023-04-20T00:12:07.788Z,34.00
2023-04-20T00:15:01.372Z,32.60
2023-04-20T00:17:55.105Z,34.50
2023-04-20T00:20:48.708Z,35.00
2023-04-20T00:23:42.528Z,33.40
2023-04-20T00:26:36.748Z,33.00
2023-04-20T00:29:30.743Z,33.00
2023-04-20T00:32:24.332Z,35.10
2023-04-20T00:35:17.943Z,35.80
2023-04-20T00:38:11.641Z,34.00
2023-04-20T00:41:05.671Z,35.30
2023-04-20T00:43:59.250Z,33.80
2023-04-20T00:46:54.764Z,36.30
2023-04-20T00:49:48.695Z,32.20
2023-04-20T00:52:43.450Z,29.80
2023-04-20T00:55:39.916Z,32.60
2023-04-20T00:58:34.591Z,37.70
2023-04-20T01:01:29.093Z,35.60
2023-04-20T01:04:23.294Z,35.60
2023-04-20T01:07:17.426Z,35.80
2023-04-20T01:10:13.011Z,35.80
2023-04-20T01:13:06.894Z,34.90
2023-04-20T01:16:03.771Z,33.10
2023-04-20T01:18:57.940Z,35.70
2023-04-20T01:21:51.563Z,32.80
2023-04-20T01:24:45.455Z,37.50
2023-04-20T01:27:39.359Z,31.20
2023-04-20T01:30:33.000Z,31.00
2023-04-20T01:33:27.232Z,36.30
2023-04-20T01:36:21.445Z,31.40
2023-04-20T01:39:15.466Z,34.80
2023-04-20T01:42:09.815Z,33.70
2023-04-20T01:45:05.262Z,33.60
2023-04-20T01:47:58.823Z,32.60
2023-04-20T01:50:55.238Z,34.20
2023-04-20T01:53:48.819Z,31.00
2023-04-20T01:56:42.671Z,34.20
2023-04-20T01:59:36.515Z,31.90
2023-04-20T02:02:30.510Z,31.30
2023-04-20T02:05:24.519Z,32.00
2023-04-20T02:08:19.466Z,32.90
2023-04-20T02:11:13.378Z,32.80
2023-04-20T02:14:06.982Z,30.90
2023-04-20T02:17:01.029Z,33.00
2023-04-20T02:19:54.709Z,33.50
2023-04-20T02:22:48.315Z,34.10
2023-04-20T02:25:41.999Z,32.20
2023-04-20T02:28:36.263Z,30.70
2023-04-20T02:31:29.973Z,32.70
2023-04-20T02:34:23.534Z,30.10
2023-04-20T02:37:17.329Z,33.90
2023-04-20T02:40:13.114Z,30.80
2023-04-20T02:43:07.106Z,31.40
2023-04-20T02:46:00.819Z,29.20
2023-04-20T02:48:55.456Z,31.10
2023-04-20T02:51:49.061Z,31.00
2023-04-20T02:54:43.362Z,27.50
2023-04-20T02:57:36.982Z,31.50
2023-04-20T03:00:31.451Z,30.00
2023-04-20T03:03:25.524Z,32.20
2023-04-20T03:06:19.358Z,32.60
2023-04-20T03:09:13.248Z,29.20
2023-04-20T03:12:07.647Z,28.80
2023-04-20T03:15:01.519Z,33.00
2023-04-20T03:17:55.203Z,30.80
2023-04-20T03:20:49.006Z,28.80
2023-04-20T03:23:42.927Z,27.50
2023-04-20T03:26:37.547Z,33.70
2023-04-20T03:29:31.489Z,31.10
2023-04-20T03:32:25.303Z,28.10
2023-04-20T03:35:20.846Z,32.60
2023-04-20T03:38:14.619Z,28.10
2023-04-20T03:41:09.325Z,29.00
2023-04-20T03:44:03.484Z,28.50
2023-04-20T03:46:57.486Z,30.80
2023-04-20T03:49:51.394Z,30.80
2023-04-20T03:52:45.206Z,29.50
2023-04-20T03:55:39.097Z,31.60
2023-04-20T03:58:32.691Z,29.70
2023-04-20T04:01:34.741Z,35.10
2023-04-20T04:04:28.733Z,35.00
2023-04-20T04:07:22.633Z,33.40
2023-04-20T04:10:17.899Z,35.80
2023-04-20T04:13:11.616Z,32.40
2023-04-20T04:16:06.458Z,30.40
2023-04-20T04:19:00.639Z,31.20
2023-04-20T04:21:54.626Z,32.30
2023-04-20T04:24:48.917Z,28.90
2023-04-20T04:27:42.732Z,33.70
2023-04-20T04:30:36.805Z,37.00
2023-04-20T04:33:31.055Z,36.30
2023-04-20T04:36:27.191Z,39.40
2023-04-20T04:42:32.681Z,26.90
2023-04-20T04:45:26.864Z,30.60
2023-04-20T04:48:20.653Z,47.40
2023-04-20T04:51:14.467Z,39.30
2023-04-20T04:54:08.529Z,34.80
2023-04-20T04:57:08.313Z,35.10
2023-04-20T05:00:02.093Z,41.50
2023-04-20T05:02:56.108Z,40.10
2023-04-20T05:05:50.002Z,39.10
2023-04-20T05:08:43.886Z,36.20
2023-04-20T05:11:37.957Z,32.80
2023-04-20T05:14:31.674Z,39.50
2023-04-20T05:17:25.692Z,34.20
2023-04-20T05:20:20.692Z,34.70
2023-04-20T05:23:14.458Z,39.10
2023-04-20T05:26:08.291Z,36.20
2023-04-20T05:29:02.379Z,35.10
2023-04-20T05:31:56.130Z,32.60
2023-04-20T05:34:49.858Z,31.20
2023-04-20T05:37:43.495Z,36.70
2023-04-20T05:40:37.350Z,33.80
2023-04-20T05:43:31.151Z,33.90
2023-04-20T05:46:25.322Z,36.10
2023-04-20T05:49:19.641Z,42.70
2023-04-20T05:52:13.564Z,39.00
2023-04-20T05:55:08.476Z,35.60
2023-04-20T05:58:02.232Z,31.80
2023-04-20T06:00:56.045Z,38.30
2023-04-20T06:03:49.995Z,34.30
2023-04-20T06:06:45.346Z,33.40
2023-04-20T06:09:39.092Z,31.50
2023-04-20T06:12:32.973Z,32.00
2023-04-20T06:15:27.136Z,34.90
2023-04-20T06:18:21.389Z,34.00
2023-04-20T06:21:17.341Z,32.40
2023-04-20T06:24:11.864Z,93.40
2023-04-20T06:27:06.349Z,47.00
2023-04-20T06:30:00.217Z,39.50
2023-04-20T06:32:54.059Z,38.30
2023-04-20T06:35:51.679Z,42.40
2023-04-20T06:38:45.724Z,38.70
2023-04-20T06:41:40.340Z,39.90
2023-04-20T06:44:34.159Z,39.20
2023-04-20T06:47:32.001Z,38.90
2023-04-20T06:50:26.198Z,37.00
2023-04-20T06:53:20.465Z,38.10
2023-04-20T06:56:14.138Z,38.90
2023-04-20T06:59:07.919Z,35.20
2023-04-20T07:02:02.446Z,38.00
2023-04-20T07:08:06.180Z,32.10
2023-04-20T07:11:00.103Z,32.50
2023-04-20T07:13:53.956Z,34.00
2023-04-20T07:16:48.574Z,34.90
2023-04-20T07:19:42.755Z,32.40
2023-04-20T07:22:37.343Z,36.10
2023-04-20T07:25:33.006Z,29.60
2023-04-20T07:28:26.953Z,30.30
2023-04-20T07:31:20.962Z,33.60
2023-04-20T07:34:14.721Z,33.60
2023-04-20T07:37:08.327Z,32.60
2023-04-20T07:40:02.200Z,37.50
2023-04-20T07:42:55.992Z,34.60
2023-04-20T07:45:49.966Z,34.60
2023-04-20T07:48:43.964Z,32.00
2023-04-20T07:51:37.801Z,38.40
2023-04-20T07:54:32.324Z,28.80
2023-04-20T07:57:26.246Z,32.50
2023-04-20T08:00:22.931Z,27.60
2023-04-20T08:03:16.745Z,28.30
2023-04-20T08:06:12.319Z,31.10
2023-04-20T08:09:06.384Z,33.10
2023-04-20T08:12:00.346Z,30.80
2023-04-20T08:14:53.947Z,32.00
2023-04-20T08:17:47.841Z,29.80
2023-04-20T08:20:41.855Z,28.50
2023-04-20T08:23:35.688Z,28.20
2023-04-20T08:26:29.419Z,29.90
2023-04-20T08:29:23.323Z,27.60
2023-04-20T08:32:18.876Z,29.30
2023-04-20T08:35:13.570Z,26.90
2023-04-20T08:38:08.230Z,27.70
2023-04-20T08:41:02.256Z,25.20
2023-04-20T08:43:56.380Z,30.40
2023-04-20T08:46:51.471Z,29.20
2023-04-20T08:49:47.775Z,25.80
2023-04-20T08:52:41.774Z,28.30
2023-04-20T08:55:35.880Z,31.10
2023-04-20T08:58:33.930Z,29.30
2023-04-20T09:01:35.603Z,28.70
2023-04-20T09:04:30.255Z,27.00
2023-04-20T09:07:25.371Z,27.20
2023-04-20T09:10:19.915Z,23.90
2023-04-20T09:13:23.900Z,25.50
2023-04-20T09:16:18.484Z,24.80
2023-04-20T09:19:14.980Z,27.90
2023-04-20T09:22:08.888Z,21.40
2023-04-20T09:25:12.929Z,25.30
2023-04-20T09:28:07.026Z,22.80
2023-04-20T09:31:01.241Z,22.80
2023-04-20T09:34:05.825Z,26.60
2023-04-20T09:36:59.712Z,26.40
2023-04-20T09:39:56.462Z,21.70
2023-04-20T09:42:51.941Z,23.90
2023-04-20T09:45:46.551Z,24.50
2023-04-20T09:48:40.672Z,20.90
2023-04-20T09:51:35.634Z,20.60
2023-04-20T09:54:29.607Z,21.80
2023-04-20T09:57:24.406Z,21.50
2023-04-20T10:00:20.491Z,19.50
2023-04-20T10:03:17.161Z,21.10
2023-04-20T10:06:23.093Z,19.10
2023-04-20T10:09:37.763Z,19.80
2023-04-20T10:12:31.409Z,19.40
2023-04-20T10:15:27.645Z,18.00
2023-04-20T10:18:24.991Z,20.80
2023-04-20T10:24:11.938Z,20.40
2023-04-20T10:27:25.712Z,22.80
2023-04-20T10:30:22.485Z,20.30
2023-04-20T10:33:17.336Z,19.80
2023-04-20T10:36:11.486Z,24.00
2023-04-20T10:39:23.125Z,24.60
2023-04-20T10:42:18.208Z,52.00
2023-04-20T10:45:13.864Z,57.60
2023-04-20T10:48:14.499Z,44.00
2023-04-20T10:51:15.646Z,32.40
2023-04-20T10:54:11.442Z,53.10
2023-04-20T10:56:52.732Z,35.90
2023-04-20T10:59:46.948Z,35.80
2023-04-20T11:02:48.950Z,34.70
2023-04-20T11:05:43.181Z,29.00
2023-04-20T11:08:44.323Z,28.40
2023-04-20T11:11:38.222Z,26.60
2023-04-20T11:14:35.002Z,16.60
2023-04-20T11:17:39.008Z,21.50
2023-04-20T11:20:53.113Z,22.70
2023-04-20T11:23:47.041Z,22.70
2023-04-20T11:26:43.527Z,24.80
2023-04-20T11:29:38.717Z,20.90
2023-04-20T11:32:32.965Z,18.80
2023-04-20T11:35:27.677Z,15.60
2023-04-20T11:38:41.748Z,20.70
2023-04-20T11:41:35.961Z,23.90
2023-04-20T11:44:29.806Z,23.20
2023-04-20T11:47:27.419Z,20.10
2023-04-20T11:50:21.882Z,17.80
2023-04-20T11:53:16.853Z,24.70
2023-04-20T11:56:11.365Z,35.00
2023-04-20T11:59:05.339Z,26.70
2023-04-20T12:02:01.561Z,38.90
2023-04-20T12:04:55.699Z,26.40
2023-04-20T12:07:55.473Z,31.40
2023-04-20T12:10:49.410Z,36.30
2023-04-20T12:13:43.223Z,30.90
2023-04-20T12:16:36.990Z,35.20
2023-04-20T12:19:39.299Z,39.30
2023-04-20T12:22:33.275Z,32.10
2023-04-20T12:25:27.158Z,57.50
2023-04-20T12:28:21.086Z,61.70
2023-04-20T12:31:15.312Z,59.30
2023-04-20T12:34:08.926Z,36.30
2023-04-20T12:37:02.616Z,58.40
2023-04-20T12:39:57.571Z,43.30
2023-04-20T12:42:51.326Z,53.70
2023-04-20T12:45:44.965Z,39.20
2023-04-20T12:48:38.589Z,39.20
2023-04-20T12:51:32.421Z,48.40
2023-04-20T12:54:26.207Z,38.50
2023-04-20T12:57:19.946Z,45.70
2023-04-20T13:00:16.498Z,27.10
2023-04-20T13:03:10.399Z,31.40
2023-04-20T13:06:04.699Z,31.10
2023-04-20T13:08:58.355Z,32.40
2023-04-20T13:11:52.072Z,36.80
2023-04-20T13:14:45.728Z,28.80
2023-04-20T13:17:39.375Z,27.10
2023-04-20T13:20:33.390Z,28.50
2023-04-20T13:23:27.288Z,29.20
2023-04-20T13:26:21.196Z,29.40
2023-04-20T13:29:15.022Z,29.10
2023-04-20T13:32:09.536Z,25.70
2023-04-20T13:35:03.648Z,25.90
2023-04-20T13:37:57.659Z,25.60
2023-04-20T13:40:51.694Z,25.00
2023-04-20T13:43:45.517Z,25.40
2023-04-20T13:46:39.298Z,20.50
2023-04-20T13:49:32.905Z,24.40
2023-04-20T13:52:26.802Z,21.20
2023-04-20T13:55:21.763Z,18.40
2023-04-20T13:58:15.466Z,15.20
2023-04-20T14:01:14.346Z,17.80
2023-04-20T14:04:09.948Z,16.10
2023-04-20T14:07:04.052Z,20.80
2023-04-20T14:09:59.843Z,16.50
2023-04-20T14:12:53.483Z,18.60
2023-04-20T14:15:47.582Z,16.20
2023-04-20T14:18:41.545Z,14.70
2023-04-20T14:21:36.254Z,17.00
2023-04-20T14:24:29.888Z,14.00
2023-04-20T14:27:23.551Z,15.40
2023-04-20T14:30:18.658Z,14.30
2023-04-20T14:33:12.562Z,11.40
2023-04-20T14:36:06.481Z,15.10
2023-04-20T14:39:00.376Z,12.90
2023-04-20T14:41:54.042Z,13.20
2023-04-20T14:44:48.783Z,12.40
2023-04-20T14:47:42.782Z,9.90
2023-04-20T14:50:36.642Z,10.10
2023-04-20T14:53:31.434Z,11.20
2023-04-20T14:56:25.873Z,8.70
2023-04-20T14:59:20.748Z,8.00
2023-04-20T15:02:14.462Z,8.40
2023-04-20T15:05:10.916Z,9.30
2023-04-20T15:08:05.502Z,9.30
2023-04-20T15:10:59.086Z,8.10
2023-04-20T15:13:54.189Z,6.70
2023-04-20T15:16:47.895Z,9.30
2023-04-20T15:19:45.828Z,10.10
2023-04-20T15:22:39.902Z,10.40
2023-04-20T15:25:34.390Z,7.90
2023-04-20T15:28:28.048Z,9.40
2023-04-20T15:31:22.625Z,9.60
2023-04-20T15:34:17.269Z,8.70
2023-04-20T15:37:11.674Z,7.60
2023-04-20T15:40:06.666Z,7.00
2023-04-20T15:43:00.401Z,8.00
2023-04-20T15:45:54.133Z,7.50
2023-04-20T15:48:47.959Z,9.00
2023-04-20T15:51:42.712Z,9.30
2023-04-20T15:54:23.781Z,7.40
2023-04-20T15:57:17.730Z,9.10
2023-04-20T16:00:15.121Z,9.50
2023-04-20T16:03:09.186Z,42.90
2023-04-20T16:06:03.861Z,20.20
2023-04-20T16:08:57.697Z,22.70
2023-04-20T16:11:51.870Z,27.30
2023-04-20T16:14:45.726Z,40.50
2023-04-20T16:17:39.373Z,33.00
2023-04-20T16:20:33.129Z,62.70
2023-04-20T16:23:26.910Z,54.20
2023-04-20T16:26:20.868Z,55.70
2023-04-20T16:29:14.519Z,53.10
2023-04-20T16:32:08.530Z,59.70
2023-04-20T16:35:02.313Z,57.90
2023-04-20T16:37:56.923Z,58.00
2023-04-20T16:40:50.879Z,47.30
2023-04-20T16:43:44.707Z,41.40
2023-04-20T16:46:38.447Z,31.60
2023-04-20T16:49:32.464Z,29.20
2023-04-20T16:52:26.195Z,28.70
2023-04-20T16:55:19.990Z,28.80
2023-04-20T16:58:15.093Z,29.20
2023-04-20T17:01:09.451Z,30.70
2023-04-20T17:04:03.360Z,29.60
2023-04-20T17:06:57.174Z,31.90
2023-04-20T17:09:50.854Z,34.40
2023-04-20T17:12:48.154Z,28.20
2023-04-20T17:15:42.749Z,34.40
2023-04-20T17:18:41.642Z,30.40
2023-04-20T17:21:35.785Z,28.40
2023-04-20T17:24:29.748Z,30.00
2023-04-20T17:27:23.902Z,30.20
2023-04-20T17:30:18.839Z,29.20
2023-04-20T17:33:13.308Z,18.70
2023-04-20T17:36:07.424Z,28.10
2023-04-20T17:39:01.187Z,37.20
2023-04-20T17:41:55.104Z,40.10
2023-04-20T17:44:48.974Z,27.40
2023-04-20T17:47:43.141Z,27.60
2023-04-20T17:50:37.677Z,30.90
2023-04-20T17:53:31.773Z,29.70
2023-04-20T17:56:25.403Z,26.90
2023-04-20T17:59:19.082Z,28.70
2023-04-20T18:02:13.481Z,26.60
2023-04-20T18:05:08.269Z,27.00
2023-04-20T18:08:01.920Z,24.80
2023-04-20T18:10:55.563Z,29.50
2023-04-20T18:13:49.184Z,29.30
2023-04-20T18:16:42.821Z,27.40
2023-04-20T18:19:36.518Z,25.50
2023-04-20T18:22:30.166Z,28.30
2023-04-20T18:25:24.351Z,29.60
2023-04-20T18:28:18.022Z,29.80
2023-04-20T18:31:11.767Z,28.40
2023-04-20T18:34:06.114Z,28.70
2023-04-20T18:36:59.762Z,26.80
2023-04-20T18:39:53.384Z,25.70
2023-04-20T18:42:47.174Z,30.10
2023-04-20T18:45:41.237Z,26.70
2023-04-20T18:48:34.840Z,31.80
2023-04-20T18:51:28.785Z,29.90
2023-04-20T18:54:22.372Z,32.20
2023-04-20T18:57:16.477Z,27.80
2023-04-20T19:00:12.360Z,27.40
2023-04-20T19:03:06.959Z,27.80
2023-04-20T19:06:01.203Z,26.60
2023-04-20T19:08:55.886Z,26.50
2023-04-20T19:11:50.696Z,30.10
2023-04-20T19:14:46.494Z,28.90
2023-04-20T19:17:42.835Z,29.40
2023-04-20T19:20:38.078Z,26.40
2023-04-20T19:23:31.682Z,26.30
2023-04-20T19:26:25.435Z,26.10
2023-04-20T19:29:19.042Z,29.80
2023-04-20T19:32:12.927Z,28.60
2023-04-20T19:35:07.069Z,30.20
2023-04-20T19:38:01.325Z,29.10
2023-04-20T19:40:55.705Z,29.40
2023-04-20T19:43:49.412Z,35.10
2023-04-20T19:46:43.513Z,35.10
2023-04-20T19:49:37.116Z,37.90
2023-04-20T19:52:30.817Z,30.50
2023-04-20T19:55:24.636Z,31.10
2023-04-20T19:58:18.214Z,35.90
2023-04-20T20:01:12.170Z,32.90
2023-04-20T20:04:06.413Z,37.70
2023-04-20T20:07:00.661Z,32.30
2023-04-20T20:09:54.393Z,28.60
2023-04-20T20:12:48.848Z,34.50
2023-04-20T20:15:42.651Z,30.00
2023-04-20T20:18:38.323Z,28.90
2023-04-20T20:21:31.947Z,30.80
2023-04-20T20:24:26.037Z,28.40
2023-04-20T20:27:19.851Z,29.40
2023-04-20T20:30:16.394Z,30.80
2023-04-20T20:33:10.001Z,28.60
2023-04-20T20:36:04.303Z,29.70
2023-04-20T20:38:50.546Z,30.00
2023-04-20T20:41:44.736Z,30.10
2023-04-20T20:44:40.035Z,29.10
2023-04-20T20:47:34.009Z,24.50
2023-04-20T20:50:28.068Z,29.50
2023-04-20T20:53:21.876Z,27.80
2023-04-20T20:56:15.488Z,27.20
2023-04-20T20:59:09.458Z,27.90
2023-04-20T21:02:03.660Z,28.80
2023-04-20T21:04:57.478Z,29.00
2023-04-20T21:07:51.400Z,29.70
2023-04-20T21:10:44.910Z,29.80
2023-04-20T21:13:39.020Z,29.00
2023-04-20T21:16:33.017Z,30.00
2023-04-20T21:19:26.959Z,27.60
2023-04-20T21:22:22.587Z,25.20
2023-04-20T21:25:16.427Z,29.50
2023-04-20T21:28:10.553Z,27.90
2023-04-20T21:31:04.339Z,24.90
2023-04-20T21:33:58.805Z,26.80
2023-04-20T21:36:52.523Z,25.50
2023-04-20T21:39:46.270Z,26.20
2023-04-20T21:42:40.127Z,21.40
2023-04-20T21:45:33.909Z,28.30
2023-04-20T21:48:28.062Z,29.50
2023-04-20T21:51:21.895Z,22.60
2023-04-20T21:54:15.612Z,28.00
2023-04-20T21:57:09.345Z,29.20
2023-04-20T22:00:03.082Z,27.80
2023-04-20T22:02:57.060Z,31.20
2023-04-20T22:05:51.078Z,36.60
2023-04-20T22:08:44.851Z,28.20
2023-04-20T22:11:38.733Z,32.60
2023-04-20T22:14:32.835Z,31.00
2023-04-20T22:17:28.986Z,35.80
2023-04-20T22:20:23.409Z,35.00
2023-04-20T22:23:17.030Z,39.80
2023-04-20T22:26:10.656Z,34.50
2023-04-20T22:29:04.363Z,33.10
2023-04-20T22:31:58.085Z,30.40
2023-04-20T22:34:51.925Z,30.30
2023-04-20T22:37:45.674Z,35.90
2023-04-20T22:40:39.841Z,28.90
2023-04-20T22:43:33.414Z,31.50
2023-04-20T22:46:27.401Z,28.30
2023-04-20T22:49:21.193Z,28.90
2023-04-20T22:52:14.861Z,32.30
2023-04-20T22:55:11.154Z,31.30
2023-04-20T22:58:04.693Z,29.70
2023-04-20T23:00:58.370Z,29.60
2023-04-20T23:03:52.022Z,23.00
2023-04-20T23:06:45.664Z,26.20
2023-04-20T23:09:41.221Z,29.10
2023-04-20T23:12:34.818Z,28.90
2023-04-20T23:15:28.517Z,25.50
2023-04-20T23:18:22.250Z,25.40
2023-04-20T23:21:15.890Z,26.80
2023-04-20T23:24:10.102Z,24.70
2023-04-20T23:27:03.906Z,22.50
2023-04-20T23:29:57.487Z,24.20
2023-04-20T23:32:51.146Z,26.90
2023-04-20T23:35:44.700Z,25.30
2023-04-20T23:38:38.352Z,25.60
2023-04-20T23:41:32.002Z,24.00
2023-04-20T23:44:25.695Z,26.90
2023-04-20T23:47:19.456Z,26.00
2023-04-20T23:50:14.623Z,25.90
2023-04-20T23:53:10.103Z,24.10
2023-04-20T23:56:03.762Z,25.20
2023-04-20T23:58:52.814Z,23.90
